createdAt,value
2022-10-06T00:02:07.804Z,2.33
2022-10-06T00:05:10.380Z,1.57
2022-10-06T00:08:14.205Z,3.03
2022-10-06T00:11:17.714Z,3.27
2022-10-06T00:14:20.274Z,1.63
2022-10-06T00:17:22.765Z,2.60
2022-10-06T00:20:26.381Z,2.90
2022-10-06T00:23:30.560Z,1.37
2022-10-06T00:26:33.075Z,0.93
2022-10-06T00:29:35.556Z,1.03
2022-10-06T00:32:38.936Z,1.43
2022-10-06T00:35:41.424Z,1.60
2022-10-06T00:38:45.249Z,1.83
2022-10-06T00:41:47.734Z,1.87
2022-10-06T00:44:50.250Z,1.13
2022-10-06T00:47:54.420Z,3.23
2022-10-06T00:50:58.837Z,0.97
2022-10-06T00:54:03.893Z,2.93
2022-10-06T00:57:07.511Z,3.13
2022-10-06T01:00:11.246Z,3.23
2022-10-06T01:03:18.334Z,1.83
2022-10-06T01:06:20.834Z,0.70
2022-10-06T01:09:25.359Z,1.53
2022-10-06T01:12:30.614Z,1.80
2022-10-06T01:15:34.414Z,0.97
2022-10-06T01:18:40.368Z,3.00
2022-10-06T01:21:47.451Z,2.70
2022-10-06T01:24:52.901Z,1.17
2022-10-06T01:27:56.799Z,2.70
2022-10-06T01:31:01.606Z,2.00
2022-10-06T01:34:04.682Z,0.80
2022-10-06T01:37:07.182Z,2.63
2022-10-06T01:40:11.585Z,2.50
2022-10-06T01:43:14.124Z,1.73
2022-10-06T01:46:16.664Z,4.53
2022-10-06T01:49:19.187Z,1.60
2022-10-06T01:52:22.125Z,1.10
2022-10-06T01:55:26.451Z,0.93
2022-10-06T01:58:29.278Z,2.50
2022-10-06T02:01:32.204Z,1.77
2022-10-06T02:04:34.776Z,2.73
2022-10-06T02:07:37.974Z,1.57
2022-10-06T02:10:41.765Z,2.10
2022-10-06T02:13:44.251Z,1.67
2022-10-06T02:16:46.921Z,2.13
2022-10-06T02:19:49.419Z,2.43
2022-10-06T02:22:51.890Z,2.63
2022-10-06T02:26:00.877Z,2.70
2022-10-06T02:29:03.353Z,3.17
2022-10-06T02:32:06.147Z,2.57
2022-10-06T02:35:10.098Z,2.50
2022-10-06T02:38:12.594Z,2.30
2022-10-06T02:41:16.422Z,5.40
2022-10-06T02:44:18.919Z,4.03
2022-10-06T02:47:22.283Z,3.70
2022-10-06T02:50:24.810Z,3.37
2022-10-06T02:53:28.170Z,5.23
2022-10-06T02:56:32.156Z,9.90
2022-10-06T02:59:35.101Z,7.20
2022-10-06T03:02:37.711Z,6.43
2022-10-06T03:05:40.375Z,6.87
2022-10-06T03:08:42.838Z,4.20
2022-10-06T03:11:46.679Z,3.70
2022-10-06T03:14:49.148Z,5.97
2022-10-06T03:17:52.438Z,6.93
2022-10-06T03:20:54.941Z,7.27
2022-10-06T03:23:58.473Z,4.40
2022-10-06T03:27:03.330Z,7.43
2022-10-06T03:30:06.777Z,6.10
2022-10-06T03:33:09.263Z,4.13
2022-10-06T03:36:13.532Z,5.30
2022-10-06T03:39:16.103Z,6.27
2022-10-06T03:42:19.932Z,5.53
2022-10-06T03:45:22.439Z,5.63
2022-10-06T03:48:25.064Z,10.67
2022-10-06T03:51:29.581Z,7.60
2022-10-06T03:54:32.057Z,4.30
2022-10-06T03:57:35.848Z,10.53
2022-10-06T04:00:38.498Z,9.47
2022-10-06T04:03:41.253Z,9.07
2022-10-06T04:06:44.789Z,12.07
2022-10-06T04:09:47.277Z,4.27
2022-10-06T04:12:51.081Z,7.70
2022-10-06T04:15:53.551Z,13.27
2022-10-06T04:18:57.798Z,6.60
2022-10-06T04:22:00.294Z,6.23
2022-10-06T04:25:02.754Z,7.67
2022-10-06T04:28:06.592Z,12.57
2022-10-06T04:31:15.965Z,8.57
2022-10-06T04:34:18.486Z,6.73
2022-10-06T04:37:20.978Z,11.60
2022-10-06T04:40:23.496Z,10.47
2022-10-06T04:43:27.860Z,10.60
2022-10-06T04:46:47.161Z,9.87
2022-10-06T04:49:49.707Z,5.83
2022-10-06T04:52:54.219Z,8.30
2022-10-06T04:56:01.572Z,9.20
2022-10-06T04:59:05.403Z,8.10
2022-10-06T05:02:07.936Z,10.53
2022-10-06T05:05:10.500Z,9.10
2022-10-06T05:08:13.010Z,9.20
2022-10-06T05:11:18.119Z,7.40
2022-10-06T05:14:23.813Z,11.37
2022-10-06T05:17:26.321Z,10.27
2022-10-06T05:20:28.841Z,10.40
2022-10-06T05:23:32.801Z,5.40
2022-10-06T05:26:36.889Z,11.20
2022-10-06T05:29:40.733Z,12.17
2022-10-06T05:32:46.240Z,14.07
2022-10-06T05:35:52.375Z,11.70
2022-10-06T05:38:54.972Z,11.90
2022-10-06T05:41:57.449Z,8.90
2022-10-06T05:45:01.266Z,16.67
2022-10-06T05:48:04.385Z,7.27
2022-10-06T05:51:08.475Z,9.03
2022-10-06T05:54:10.957Z,11.77
2022-10-06T05:57:13.878Z,11.53
2022-10-06T06:00:17.934Z,8.87
2022-10-06T06:03:20.407Z,9.70
2022-10-06T06:06:24.921Z,11.07
2022-10-06T06:09:28.761Z,11.37
2022-10-06T06:12:31.243Z,14.53
2022-10-06T06:15:52.975Z,13.03
2022-10-06T06:18:55.931Z,7.00
2022-10-06T06:21:58.453Z,16.67
2022-10-06T06:25:00.910Z,12.80
2022-10-06T06:28:03.461Z,6.90
2022-10-06T06:31:09.712Z,8.30
2022-10-06T06:34:12.370Z,16.53
2022-10-06T06:37:15.567Z,14.13
2022-10-06T06:40:18.109Z,6.73
2022-10-06T06:43:20.580Z,14.40
2022-10-06T06:46:26.915Z,9.83
2022-10-06T06:49:29.660Z,16.27
2022-10-06T06:52:32.451Z,12.10
2022-10-06T06:55:34.986Z,13.80
2022-10-06T06:58:38.132Z,9.93
2022-10-06T07:01:45.362Z,9.60
2022-10-06T07:04:47.930Z,17.13
2022-10-06T07:07:51.326Z,16.20
2022-10-06T07:10:55.246Z,8.60
2022-10-06T07:14:01.069Z,10.43
2022-10-06T07:17:22.398Z,15.30
2022-10-06T07:20:42.750Z,14.67
2022-10-06T07:24:04.270Z,11.63
2022-10-06T07:27:06.787Z,9.83
2022-10-06T07:30:11.196Z,9.83
2022-10-06T07:33:15.685Z,8.73
2022-10-06T07:36:18.752Z,7.40
2022-10-06T07:39:21.617Z,8.43
2022-10-06T07:42:24.116Z,12.10
2022-10-06T07:45:41.327Z,8.30
2022-10-06T07:48:47.109Z,10.83
2022-10-06T07:51:49.602Z,13.93
2022-10-06T07:54:52.403Z,9.83
2022-10-06T07:57:55.067Z,12.63
2022-10-06T08:01:05.098Z,8.80
2022-10-06T08:04:08.927Z,19.23
2022-10-06T08:07:12.545Z,16.20
2022-10-06T08:10:18.379Z,12.97
2022-10-06T08:13:20.984Z,8.97
2022-10-06T08:16:25.767Z,13.17
2022-10-06T08:19:29.658Z,11.43
2022-10-06T08:22:32.491Z,17.53
2022-10-06T08:25:36.200Z,13.30
2022-10-06T08:28:39.346Z,12.07
2022-10-06T08:31:41.947Z,12.70
2022-10-06T08:34:47.247Z,12.07
2022-10-06T08:37:50.174Z,14.90
2022-10-06T08:40:52.689Z,9.53
2022-10-06T08:44:00.833Z,10.07
2022-10-06T08:47:05.550Z,15.50
2022-10-06T08:50:13.340Z,10.07
2022-10-06T08:53:26.146Z,9.10
2022-10-06T08:56:34.322Z,12.27
2022-10-06T08:59:37.745Z,9.23
2022-10-06T09:02:45.432Z,10.67
2022-10-06T09:05:49.526Z,12.40
2022-10-06T09:08:56.899Z,6.97
2022-10-06T09:12:07.657Z,11.07
2022-10-06T09:15:24.444Z,12.87
2022-10-06T09:18:56.080Z,12.50
2022-10-06T09:21:56.554Z,10.40
2022-10-06T09:25:04.032Z,12.53
2022-10-06T09:28:15.497Z,14.10
2022-10-06T09:31:23.600Z,10.47
2022-10-06T09:34:34.803Z,10.60
2022-10-06T09:37:54.490Z,13.50
2022-10-06T09:40:57.459Z,11.37
2022-10-06T09:44:03.813Z,11.43
2022-10-06T09:47:24.268Z,10.47
2022-10-06T09:50:28.452Z,16.00
2022-10-06T09:53:35.541Z,9.70
2022-10-06T09:56:42.037Z,13.20
2022-10-06T09:59:46.518Z,19.07
2022-10-06T10:02:49.181Z,9.90
2022-10-06T10:05:54.782Z,7.13
2022-10-06T10:09:30.340Z,10.03
2022-10-06T10:12:34.837Z,9.97
2022-10-06T10:15:42.526Z,9.27
2022-10-06T10:18:47.809Z,12.07
2022-10-06T10:21:50.320Z,9.90
2022-10-06T10:25:05.335Z,8.33
2022-10-06T10:28:17.468Z,10.20
2022-10-06T10:31:29.665Z,12.73
2022-10-06T10:35:06.983Z,9.57
2022-10-06T10:38:18.086Z,12.00
2022-10-06T10:41:25.446Z,7.73
2022-10-06T10:44:33.290Z,7.37
2022-10-06T10:47:38.792Z,8.40
2022-10-06T10:50:51.011Z,7.33
2022-10-06T10:53:58.347Z,14.63
2022-10-06T10:57:02.449Z,7.28
2022-10-06T11:00:08.801Z,9.37
2022-10-06T11:03:11.663Z,10.05
2022-10-06T11:06:43.710Z,9.67
2022-10-06T11:09:50.971Z,13.88
2022-10-06T11:13:14.825Z,11.15
2022-10-06T11:16:27.447Z,10.65
2022-10-06T11:19:41.259Z,9.07
2022-10-06T11:22:47.963Z,8.25
2022-10-06T11:25:56.317Z,6.53
2022-10-06T11:29:08.513Z,7.57
2022-10-06T11:32:23.719Z,9.40
2022-10-06T11:35:28.613Z,9.35
2022-10-06T11:38:40.217Z,7.38
2022-10-06T11:41:46.378Z,11.73
2022-10-06T11:44:57.003Z,9.87
2022-10-06T11:48:26.579Z,8.07
2022-10-06T11:51:31.222Z,9.40
2022-10-06T11:54:46.346Z,5.68
2022-10-06T11:58:37.522Z,11.40
2022-10-06T12:01:55.981Z,5.10
2022-10-06T12:05:55.688Z,8.27
2022-10-06T12:08:54.178Z,6.67
2022-10-06T12:11:58.058Z,9.38
2022-10-06T12:18:41.692Z,12.07
2022-10-06T12:21:51.221Z,8.85
2022-10-06T12:25:02.721Z,7.47
2022-10-06T12:28:15.970Z,8.70
2022-10-06T12:31:44.914Z,8.57
2022-10-06T12:35:03.732Z,6.30
2022-10-06T12:38:07.509Z,8.13
2022-10-06T12:41:11.778Z,9.50
2022-10-06T12:44:24.162Z,5.78
2022-10-06T12:47:35.456Z,8.50
2022-10-06T12:50:42.810Z,6.03
2022-10-06T12:53:55.447Z,6.57
2022-10-06T12:56:59.377Z,9.40
2022-10-06T13:00:01.916Z,9.70
2022-10-06T13:03:07.109Z,6.90
2022-10-06T13:06:11.809Z,10.48
2022-10-06T13:09:15.392Z,6.93
2022-10-06T13:12:27.342Z,5.40
2022-10-06T13:18:39.182Z,7.15
2022-10-06T13:21:43.012Z,6.03
2022-10-06T13:24:45.492Z,5.85
2022-10-06T13:27:50.939Z,4.13
2022-10-06T13:30:56.142Z,7.75
2022-10-06T13:34:01.660Z,3.75
2022-10-06T13:37:05.628Z,8.75
2022-10-06T13:40:21.784Z,4.18
2022-10-06T13:43:43.054Z,5.28
2022-10-06T13:46:49.349Z,10.75
2022-10-06T13:49:56.210Z,7.55
2022-10-06T13:53:01.744Z,6.72
2022-10-06T13:56:04.224Z,7.10
2022-10-06T13:59:38.214Z,8.45
2022-10-06T14:02:42.081Z,5.57
2022-10-06T14:05:47.286Z,9.90
2022-10-06T14:08:54.887Z,4.93
2022-10-06T14:12:04.762Z,8.23
2022-10-06T14:15:18.043Z,3.83
2022-10-06T14:18:24.676Z,8.20
2022-10-06T14:21:35.466Z,7.93
2022-10-06T14:24:51.293Z,6.17
2022-10-06T14:27:54.653Z,9.77
2022-10-06T14:30:57.607Z,10.30
2022-10-06T14:34:00.686Z,12.17
2022-10-06T14:37:03.229Z,13.10
2022-10-06T14:40:11.971Z,7.20
2022-10-06T14:43:14.814Z,6.00
2022-10-06T14:46:17.345Z,11.23
2022-10-06T14:49:20.333Z,8.43
2022-10-06T14:52:22.816Z,9.47
2022-10-06T14:55:30.281Z,5.93
2022-10-06T14:58:32.974Z,5.47
2022-10-06T15:01:37.472Z,6.13
2022-10-06T15:04:39.941Z,6.33
2022-10-06T15:08:00.508Z,9.30
2022-10-06T15:11:04.341Z,5.97
2022-10-06T15:14:08.553Z,6.37
2022-10-06T15:17:11.109Z,7.37
2022-10-06T15:20:14.209Z,6.07
2022-10-06T15:23:17.285Z,7.53
2022-10-06T15:26:40.845Z,4.43
2022-10-06T15:29:43.340Z,6.70
2022-10-06T15:32:46.324Z,8.23
2022-10-06T15:36:05.814Z,8.50
2022-10-06T15:39:10.448Z,7.00
2022-10-06T15:42:15.401Z,6.23
2022-10-06T15:45:18.227Z,5.90
2022-10-06T15:48:21.874Z,9.63
2022-10-06T15:51:24.469Z,9.20
2022-10-06T15:54:28.755Z,5.53
2022-10-06T15:57:32.607Z,9.33
2022-10-06T16:00:35.083Z,6.73
2022-10-06T16:03:41.359Z,10.77
2022-10-06T16:06:50.190Z,8.93
2022-10-06T16:09:52.877Z,6.77
2022-10-06T16:12:56.690Z,7.17
2022-10-06T16:15:59.224Z,10.43
2022-10-06T16:19:02.507Z,10.17
2022-10-06T16:22:06.639Z,10.33
2022-10-06T16:25:09.576Z,10.97
2022-10-06T16:28:14.611Z,9.07
2022-10-06T16:31:17.377Z,10.23
2022-10-06T16:34:20.040Z,4.97
2022-10-06T16:37:22.526Z,10.80
2022-10-06T16:40:25.005Z,4.93
2022-10-06T16:43:33.693Z,6.90
2022-10-06T16:46:36.612Z,6.17
2022-10-06T16:49:39.138Z,12.17
2022-10-06T16:52:41.864Z,7.93
2022-10-06T16:55:44.400Z,9.87
2022-10-06T16:58:50.207Z,9.63
2022-10-06T17:01:52.696Z,9.63
2022-10-06T17:04:55.169Z,12.03
2022-10-06T17:07:59.223Z,10.37
2022-10-06T17:11:03.743Z,9.20
2022-10-06T17:14:07.680Z,8.27
2022-10-06T17:17:10.173Z,11.27
2022-10-06T17:20:13.850Z,8.17
2022-10-06T17:23:16.324Z,10.70
2022-10-06T17:26:20.247Z,12.53
2022-10-06T17:29:24.681Z,8.17
2022-10-06T17:32:27.178Z,7.30
2022-10-06T17:35:29.663Z,11.50
2022-10-06T17:38:32.412Z,7.10
2022-10-06T17:41:36.759Z,10.83
2022-10-06T17:44:41.149Z,10.20
2022-10-06T17:47:43.617Z,12.23
2022-10-06T17:50:57.672Z,14.23
2022-10-06T17:54:01.686Z,14.30
2022-10-06T17:57:05.310Z,8.47
2022-10-06T18:00:10.615Z,9.97
2022-10-06T18:03:13.279Z,8.53
2022-10-06T18:06:17.418Z,10.47
2022-10-06T18:09:20.480Z,12.70
2022-10-06T18:12:22.013Z,9.83
2022-10-06T18:15:27.003Z,9.97
2022-10-06T18:18:30.299Z,11.50
2022-10-06T18:21:35.202Z,13.00
2022-10-06T18:24:38.110Z,5.40
2022-10-06T18:27:40.969Z,9.17
2022-10-06T18:30:50.406Z,10.00
2022-10-06T18:37:15.860Z,10.13
2022-10-06T18:40:18.534Z,9.40
2022-10-06T18:43:20.997Z,9.13
2022-10-06T18:46:42.765Z,9.83
2022-10-06T18:49:45.234Z,11.43
2022-10-06T18:52:47.723Z,9.90
2022-10-06T18:55:52.258Z,11.33
2022-10-06T18:58:54.746Z,9.07
2022-10-06T19:02:00.200Z,9.87
2022-10-06T19:05:03.074Z,6.93
2022-10-06T19:08:05.886Z,9.67
2022-10-06T19:11:26.338Z,8.87
2022-10-06T19:14:31.574Z,15.77
2022-10-06T19:17:35.719Z,8.67
2022-10-06T19:20:38.208Z,7.93
2022-10-06T19:23:41.387Z,7.40
2022-10-06T19:26:46.274Z,9.13
2022-10-06T19:29:52.812Z,10.77
2022-10-06T19:32:56.667Z,9.17
2022-10-06T19:36:00.373Z,8.57
2022-10-06T19:39:04.077Z,9.03
2022-10-06T19:42:24.649Z,10.33
2022-10-06T19:45:27.150Z,5.63
2022-10-06T19:48:31.634Z,8.20
2022-10-06T19:51:35.440Z,5.47
2022-10-06T19:54:38.544Z,8.90
2022-10-06T19:57:41.290Z,8.77
2022-10-06T20:00:44.137Z,10.20
2022-10-06T20:03:48.242Z,7.00
2022-10-06T20:06:51.961Z,12.30
2022-10-06T20:09:54.542Z,15.47
2022-10-06T20:12:58.562Z,8.83
2022-10-06T20:16:04.974Z,8.23
2022-10-06T20:19:10.705Z,13.00
2022-10-06T20:22:13.203Z,10.07
2022-10-06T20:25:15.717Z,12.37
2022-10-06T20:28:18.297Z,8.90
2022-10-06T20:31:22.992Z,10.77
2022-10-06T20:34:31.466Z,7.17
2022-10-06T20:37:33.953Z,8.43
2022-10-06T20:40:43.230Z,12.17
2022-10-06T20:43:45.761Z,7.43
2022-10-06T20:46:48.275Z,8.17
2022-10-06T20:49:54.991Z,10.30
2022-10-06T20:52:58.315Z,12.70
2022-10-06T20:56:01.492Z,8.97
2022-10-06T20:59:06.997Z,9.43
2022-10-06T21:02:11.307Z,14.30
2022-10-06T21:05:15.191Z,8.60
2022-10-06T21:08:17.756Z,11.87
2022-10-06T21:11:22.838Z,12.77
2022-10-06T21:14:26.061Z,13.13
2022-10-06T21:17:28.652Z,17.70
2022-10-06T21:20:32.494Z,12.03
2022-10-06T21:23:38.018Z,9.53
2022-10-06T21:26:42.420Z,8.20
2022-10-06T21:29:45.053Z,9.70
2022-10-06T21:32:47.674Z,9.80
2022-10-06T21:35:59.205Z,7.10
2022-10-06T21:39:04.378Z,8.27
2022-10-06T21:42:07.061Z,5.30
2022-10-06T21:45:10.375Z,10.67
2022-10-06T21:48:13.607Z,12.17
2022-10-06T21:51:17.464Z,8.03
2022-10-06T21:54:21.054Z,12.73
2022-10-06T21:57:23.564Z,8.93
2022-10-06T22:00:26.067Z,16.60
2022-10-06T22:03:28.599Z,5.23
2022-10-06T22:06:34.628Z,8.27
2022-10-06T22:09:37.187Z,8.70
2022-10-06T22:12:39.703Z,7.40
2022-10-06T22:15:42.222Z,15.43
2022-10-06T22:18:44.770Z,8.17
2022-10-06T22:21:49.426Z,9.03
2022-10-06T22:24:51.927Z,9.93
2022-10-06T22:27:54.417Z,12.73
2022-10-06T22:31:08.643Z,11.20
2022-10-06T22:34:14.139Z,10.83
2022-10-06T22:37:18.039Z,14.17
2022-10-06T22:40:20.583Z,8.83
2022-10-06T22:43:23.087Z,9.23
2022-10-06T22:46:26.559Z,9.27
2022-10-06T22:49:29.127Z,14.77
2022-10-06T22:52:32.967Z,12.03
2022-10-06T22:55:35.478Z,14.63
2022-10-06T22:58:38.862Z,7.57
2022-10-06T23:01:41.417Z,11.23
2022-10-06T23:04:43.926Z,10.00
2022-10-06T23:07:47.795Z,10.47
2022-10-06T23:10:50.494Z,10.40
2022-10-06T23:13:53.270Z,9.23
2022-10-06T23:16:55.852Z,10.80
2022-10-06T23:19:58.414Z,13.00
2022-10-06T23:23:02.292Z,7.37
2022-10-06T23:26:07.152Z,11.07
2022-10-06T23:29:12.795Z,10.30
2022-10-06T23:32:15.306Z,15.60
2022-10-06T23:35:17.819Z,8.47
2022-10-06T23:38:21.658Z,10.53
2022-10-06T23:41:24.262Z,6.80
2022-10-06T23:44:27.080Z,9.57
2022-10-06T23:47:29.594Z,8.37
2022-10-06T23:50:32.118Z,10.17
2022-10-06T23:53:36.578Z,10.10
2022-10-06T23:56:39.287Z,9.70
2022-10-06T23:59:41.800Z,8.83
